Time;durP1;ratioP1;P1;durP2;ratioP2;P2;SDS_P1;SDS_P2;PMS_P1;PMS_P2;Temp;Humidity;BMP_temperature;BMP_pressure;BME280_temperature;BME280_humidity;BME280_pressure;Samples;Min_cycle;Max_cycle;Signal;HPM_P1;HPM_P2
2021/11/27 00:02:05;;;;;;;12.73;6.80;;;4.30;99.90;;;;;;5076500;28;20198;-73
2021/11/27 00:04:32;;;;;;;13.20;7.23;;;4.30;99.90;;;;;;5075771;28;20226;-73
2021/11/27 00:06:59;;;;;;;12.93;6.63;;;4.30;99.90;;;;;;5075370;28;20212;-73
2021/11/27 00:09:26;;;;;;;11.57;6.23;;;4.30;99.90;;;;;;5073664;28;20220;-73
2021/11/27 00:11:53;;;;;;;13.17;6.67;;;4.30;99.90;;;;;;5079333;28;20651;-73
2021/11/27 00:14:21;;;;;;;14.10;6.90;;;4.20;99.90;;;;;;5074076;28;20201;-73
2021/11/27 00:16:48;;;;;;;10.57;6.30;;;4.20;99.90;;;;;;5073274;28;20202;-73
2021/11/27 00:19:15;;;;;;;12.73;6.40;;;4.20;99.90;;;;;;5073376;28;20225;-73
2021/11/27 00:21:44;;;;;;;12.57;6.73;;;4.20;99.90;;;;;;5076161;28;20202;-73
2021/11/27 00:24:11;;;;;;;10.47;5.83;;;4.20;99.90;;;;;;5070766;28;20222;-74
2021/11/27 00:26:38;;;;;;;12.80;7.23;;;4.20;99.90;;;;;;5080108;28;20198;-73
2021/11/27 00:29:05;;;;;;;12.63;6.70;;;4.20;99.90;;;;;;5068436;28;20912;-73
2021/11/27 00:31:36;;;;;;;11.00;6.37;;;4.20;99.90;;;;;;5072839;28;20617;-73
2021/11/27 00:34:03;;;;;;;11.77;6.43;;;4.10;99.90;;;;;;5071808;28;20607;-73
2021/11/27 00:36:30;;;;;;;10.43;5.87;;;4.10;99.90;;;;;;5074903;28;20568;-73
2021/11/27 00:38:57;;;;;;;12.27;6.40;;;4.10;99.90;;;;;;5072006;28;20214;-73
2021/11/27 00:41:24;;;;;;;11.50;6.37;;;4.20;99.90;;;;;;5080128;28;20289;-73
2021/11/27 00:43:51;;;;;;;10.33;5.97;;;4.20;99.90;;;;;;5070124;28;20222;-73
2021/11/27 00:46:18;;;;;;;11.30;5.57;;;4.20;99.90;;;;;;5053094;28;20206;-73
2021/11/27 00:48:47;;;;;;;11.47;6.47;;;4.20;99.90;;;;;;5054317;28;20238;-73
2021/11/27 00:51:19;;;;;;;12.30;6.53;;;4.30;99.90;;;;;;5053455;28;20195;-73
2021/11/27 00:53:46;;;;;;;11.37;6.00;;;4.30;99.90;;;;;;5070658;28;20281;-73
2021/11/27 00:56:15;;;;;;;10.77;5.83;;;4.30;99.90;;;;;;5059632;28;20230;-73
2021/11/27 00:58:43;;;;;;;10.23;5.37;;;4.30;99.90;;;;;;5055689;28;20195;-73
2021/11/27 01:01:14;;;;;;;10.63;5.90;;;4.20;99.90;;;;;;5052916;28;20214;-73
2021/11/27 01:03:43;;;;;;;9.10;5.53;;;4.20;99.90;;;;;;5070919;28;20225;-73
2021/11/27 01:06:13;;;;;;;12.03;5.73;;;4.10;99.90;;;;;;5072489;28;20786;-73
2021/11/27 01:08:41;;;;;;;11.47;6.23;;;4.10;99.90;;;;;;5055963;28;20206;-73
2021/11/27 01:11:11;;;;;;;9.03;5.17;;;4.10;99.90;;;;;;5069117;28;20379;-73
2021/11/27 01:13:39;;;;;;;10.80;5.40;;;4.10;99.90;;;;;;5072125;28;20203;-73
2021/11/27 01:16:06;;;;;;;9.60;5.33;;;4.00;99.90;;;;;;5053032;28;20195;-73
2021/11/27 01:18:34;;;;;;;10.17;5.50;;;4.00;99.90;;;;;;5061949;28;20198;-73
2021/11/27 01:21:05;;;;;;;9.60;5.57;;;4.00;99.90;;;;;;5070653;28;20205;-73
2021/11/27 01:23:34;;;;;;;9.67;5.67;;;4.10;99.90;;;;;;5070025;28;20324;-73
2021/11/27 01:26:01;;;;;;;8.33;5.07;;;4.00;99.90;;;;;;5070321;28;20208;-73
2021/11/27 01:28:28;;;;;;;9.50;5.97;;;4.00;99.90;;;;;;5066712;28;20292;-73
2021/11/27 01:30:58;;;;;;;8.97;5.20;;;4.00;99.90;;;;;;5069726;28;20208;-73
2021/11/27 01:33:25;;;;;;;10.37;5.30;;;3.90;99.90;;;;;;5070808;28;20289;-73
2021/11/27 01:35:53;;;;;;;10.20;5.17;;;3.90;99.90;;;;;;5069370;28;20228;-73
2021/11/27 01:38:21;;;;;;;10.77;5.60;;;3.90;99.90;;;;;;5058734;28;20669;-73
2021/11/27 01:40:49;;;;;;;9.60;5.37;;;3.80;99.90;;;;;;5057613;28;20229;-73
2021/11/27 01:43:16;;;;;;;7.60;4.40;;;3.90;99.90;;;;;;5050883;28;20269;-73
2021/11/27 01:45:43;;;;;;;10.07;4.93;;;3.80;99.90;;;;;;5054012;28;20209;-73
2021/11/27 01:48:14;;;;;;;8.60;5.03;;;3.70;99.90;;;;;;5051906;28;20207;-73
2021/11/27 01:50:45;;;;;;;8.80;4.53;;;3.70;99.90;;;;;;5057998;28;20229;-73
2021/11/27 01:53:13;;;;;;;8.57;4.60;;;3.70;99.90;;;;;;5075034;28;20228;-73
2021/11/27 01:55:40;;;;;;;8.57;4.53;;;3.70;99.90;;;;;;5067763;28;20208;-73
2021/11/27 01:58:09;;;;;;;7.00;4.47;;;3.80;99.90;;;;;;5072069;28;20206;-73
2021/11/27 02:00:40;;;;;;;7.33;4.30;;;3.70;99.90;;;;;;5070454;28;20667;-73
2021/11/27 02:03:08;;;;;;;9.63;4.63;;;3.70;99.90;;;;;;5072126;28;20288;-73
2021/11/27 02:05:35;;;;;;;8.07;4.73;;;3.80;99.90;;;;;;5070547;28;20198;-73
2021/11/27 02:08:02;;;;;;;7.90;5.10;;;3.80;99.90;;;;;;5071460;28;20204;-74
2021/11/27 02:10:29;;;;;;;7.10;4.13;;;3.80;99.90;;;;;;5066319;28;20214;-73
2021/11/27 02:12:56;;;;;;;7.43;4.70;;;3.80;99.90;;;;;;5071343;28;20208;-73
2021/11/27 02:15:25;;;;;;;8.57;4.93;;;3.80;99.90;;;;;;5070438;28;20182;-73
2021/11/27 02:17:52;;;;;;;7.23;3.70;;;3.80;99.90;;;;;;5071959;28;20390;-73
2021/11/27 02:20:20;;;;;;;7.47;3.97;;;3.80;99.90;;;;;;5066207;28;20201;-73
2021/11/27 02:22:48;;;;;;;7.60;4.40;;;3.80;99.90;;;;;;5071965;28;20205;-73
2021/11/27 02:25:18;;;;;;;6.27;4.07;;;3.80;99.90;;;;;;5064898;28;20218;-73
2021/11/27 02:27:47;;;;;;;6.30;4.00;;;3.80;99.90;;;;;;5071797;28;20292;-73
2021/11/27 02:30:15;;;;;;;5.67;3.93;;;3.90;99.90;;;;;;5055994;28;20201;-73
2021/11/27 02:32:43;;;;;;;6.80;4.10;;;3.90;99.90;;;;;;5061322;28;20569;-73
2021/11/27 02:35:10;;;;;;;6.73;4.03;;;3.90;99.90;;;;;;5062038;28;20199;-73
2021/11/27 02:37:38;;;;;;;7.27;4.20;;;3.90;99.90;;;;;;5071749;28;20207;-73
2021/11/27 02:40:08;;;;;;;6.63;3.93;;;3.90;99.90;;;;;;5069683;28;20206;-73
2021/11/27 02:42:36;;;;;;;6.73;4.33;;;4.00;99.90;;;;;;5063731;28;20657;-73
2021/11/27 02:45:04;;;;;;;6.83;4.23;;;4.00;99.90;;;;;;5067646;28;20232;-73
2021/11/27 02:47:31;;;;;;;7.27;4.27;;;4.00;99.90;;;;;;5061878;28;20653;-73
2021/11/27 02:50:01;;;;;;;8.00;4.23;;;4.00;99.90;;;;;;5068824;28;20194;-73
2021/11/27 02:52:29;;;;;;;6.07;4.57;;;4.00;99.90;;;;;;5065806;28;20252;-73
2021/11/27 02:54:56;;;;;;;9.20;4.90;;;4.10;99.90;;;;;;5068991;28;20549;-73
2021/11/27 02:57:24;;;;;;;6.97;4.50;;;4.10;99.90;;;;;;5060606;28;20212;-73
2021/11/27 02:59:51;;;;;;;7.27;4.83;;;4.10;99.90;;;;;;5068163;28;20206;-73
2021/11/27 03:02:18;;;;;;;6.50;3.97;;;4.10;99.90;;;;;;5059337;28;20224;-73
2021/11/27 03:04:49;;;;;;;5.67;4.00;;;4.10;99.90;;;;;;5071013;28;20676;-73
2021/11/27 03:07:17;;;;;;;7.93;4.23;;;4.10;99.90;;;;;;5074575;28;20667;-73
2021/11/27 03:09:44;;;;;;;6.33;4.27;;;4.10;99.90;;;;;;5073013;28;20399;-73
2021/11/27 03:12:12;;;;;;;7.23;4.40;;;4.20;99.90;;;;;;5073655;28;20220;-73
2021/11/27 03:14:40;;;;;;;7.10;4.27;;;4.20;99.90;;;;;;5074177;28;20198;-73
2021/11/27 03:17:07;;;;;;;8.87;4.77;;;4.20;99.90;;;;;;5073638;28;20558;-73
2021/11/27 03:19:36;;;;;;;6.60;4.20;;;4.20;99.90;;;;;;5073537;28;20210;-73
2021/11/27 03:22:03;;;;;;;7.20;4.10;;;4.20;99.90;;;;;;5074202;28;20652;-73
2021/11/27 03:24:30;;;;;;;6.43;4.50;;;4.30;99.90;;;;;;5073990;28;20222;-73
2021/11/27 03:26:58;;;;;;;7.80;4.60;;;4.30;99.90;;;;;;5073334;28;20205;-73
2021/11/27 03:29:25;;;;;;;6.07;4.07;;;4.30;99.90;;;;;;5073645;28;20198;-73
2021/11/27 03:31:58;;;;;;;7.63;4.07;;;4.30;99.90;;;;;;5073314;28;20206;-73
2021/11/27 03:34:25;;;;;;;7.13;4.27;;;4.40;99.90;;;;;;5073226;28;20537;-73
2021/11/27 03:36:52;;;;;;;6.00;3.90;;;4.40;99.90;;;;;;5073402;28;20201;-73
2021/11/27 03:39:19;;;;;;;7.00;3.83;;;4.40;99.90;;;;;;5070909;28;20280;-73
2021/11/27 03:41:46;;;;;;;6.40;3.67;;;4.30;99.90;;;;;;5067057;28;20209;-73
2021/11/27 03:44:13;;;;;;;5.27;3.53;;;4.30;99.90;;;;;;5074298;28;20556;-73
2021/11/27 03:46:40;;;;;;;7.73;4.17;;;4.30;99.90;;;;;;5072228;28;20202;-73
2021/11/27 03:49:08;;;;;;;5.37;3.77;;;4.30;99.90;;;;;;5065640;28;20194;-73
2021/11/27 03:51:35;;;;;;;7.93;4.40;;;4.30;99.90;;;;;;5072455;28;20210;-73
2021/11/27 03:54:03;;;;;;;7.93;4.33;;;4.30;99.90;;;;;;5073847;28;20206;-73
2021/11/27 03:56:30;;;;;;;7.37;3.70;;;4.30;99.90;;;;;;5072563;28;20277;-73
2021/11/27 03:59:00;;;;;;;6.60;4.10;;;4.30;99.90;;;;;;5073792;28;20694;-73
2021/11/27 04:01:28;;;;;;;6.00;3.80;;;4.40;99.90;;;;;;5071927;28;20194;-73
2021/11/27 04:03:57;;;;;;;6.97;4.53;;;4.40;99.90;;;;;;5073497;28;20290;-73
2021/11/27 04:06:25;;;;;;;5.67;3.80;;;4.40;99.90;;;;;;5073518;28;20198;-73
2021/11/27 04:08:54;;;;;;;5.60;3.90;;;4.30;99.90;;;;;;5072878;28;20194;-73
2021/11/27 04:11:21;;;;;;;6.80;4.00;;;4.30;99.90;;;;;;5071445;28;20229;-73
2021/11/27 04:13:48;;;;;;;6.30;4.03;;;4.30;99.90;;;;;;5073252;28;20221;-73
2021/11/27 04:16:15;;;;;;;5.90;3.57;;;4.30;99.90;;;;;;5071760;28;20553;-73
2021/11/27 04:18:42;;;;;;;4.60;3.80;;;4.40;99.90;;;;;;5071606;28;20198;-73
2021/11/27 04:21:10;;;;;;;5.17;3.70;;;4.40;99.90;;;;;;5072449;28;20202;-73
2021/11/27 04:23:39;;;;;;;6.57;3.93;;;4.40;99.90;;;;;;5073483;28;20199;-73
2021/11/27 04:26:06;;;;;;;6.17;3.80;;;4.40;99.90;;;;;;5072413;28;20279;-73
2021/11/27 04:28:33;;;;;;;6.80;3.53;;;4.40;99.90;;;;;;5073209;28;20206;-73
2021/11/27 04:31:00;;;;;;;5.47;3.77;;;4.30;99.90;;;;;;5069598;28;20199;-73
2021/11/27 04:33:27;;;;;;;7.63;3.83;;;4.40;99.90;;;;;;5061134;28;20198;-73
2021/11/27 04:35:55;;;;;;;5.87;4.13;;;4.40;99.90;;;;;;5071114;28;20209;-73
2021/11/27 04:38:22;;;;;;;4.47;3.40;;;4.40;99.90;;;;;;5060160;28;20201;-73
2021/11/27 04:40:52;;;;;;;5.83;3.70;;;4.40;99.90;;;;;;5071766;28;20684;-73
2021/11/27 04:43:19;;;;;;;4.77;3.50;;;4.30;99.90;;;;;;5056435;28;20199;-73
2021/11/27 04:45:46;;;;;;;4.40;3.37;;;4.40;99.90;;;;;;5061686;28;20230;-73
2021/11/27 04:48:13;;;;;;;3.37;3.03;;;4.40;99.90;;;;;;5073143;28;20198;-73
2021/11/27 04:50:41;;;;;;;3.90;3.03;;;4.40;99.90;;;;;;5071749;28;20202;-73
2021/11/27 04:53:09;;;;;;;3.33;2.57;;;4.50;99.90;;;;;;5067120;28;20644;-70
2021/11/27 04:55:36;;;;;;;4.30;2.83;;;4.50;99.90;;;;;;5071081;28;20198;-70
2021/11/27 04:58:05;;;;;;;3.40;2.73;;;4.40;99.90;;;;;;5059040;28;20209;-70
2021/11/27 05:00:34;;;;;;;3.87;2.77;;;4.40;99.90;;;;;;5054904;28;20210;-70
2021/11/27 05:03:01;;;;;;;3.73;2.60;;;4.40;99.90;;;;;;5055031;28;20569;-70
2021/11/27 05:05:29;;;;;;;3.43;2.40;;;4.40;99.90;;;;;;5067871;28;20226;-70
2021/11/27 05:07:56;;;;;;;3.47;2.63;;;4.40;99.90;;;;;;5072699;28;20542;-70
2021/11/27 05:10:23;;;;;;;3.93;2.60;;;4.30;99.90;;;;;;5071222;28;20198;-70
2021/11/27 05:12:50;;;;;;;3.97;2.47;;;4.30;99.90;;;;;;5060036;28;20222;-70
2021/11/27 05:15:19;;;;;;;3.57;2.67;;;4.30;99.90;;;;;;5060837;28;20560;-70
2021/11/27 05:17:47;;;;;;;3.20;2.70;;;4.30;99.90;;;;;;5064551;28;20557;-70
2021/11/27 05:20:14;;;;;;;4.37;2.93;;;4.20;99.90;;;;;;5067313;28;20210;-70
2021/11/27 05:22:41;;;;;;;3.33;2.70;;;4.30;99.90;;;;;;5066871;28;20213;-70
2021/11/27 05:25:08;;;;;;;3.50;2.70;;;4.30;99.90;;;;;;5066791;28;20218;-70
2021/11/27 05:27:36;;;;;;;3.13;2.60;;;4.20;99.90;;;;;;5052268;28;20285;-70
2021/11/27 05:30:04;;;;;;;2.70;2.40;;;4.20;99.90;;;;;;5061966;28;20199;-70
2021/11/27 05:32:49;;;;;;;3.47;2.67;;;4.30;99.90;;;;;;5059396;28;20206;-70
2021/11/27 05:35:16;;;;;;;3.30;2.67;;;4.20;99.90;;;;;;5065616;28;20211;-70
2021/11/27 05:37:44;;;;;;;4.80;3.27;;;4.20;99.90;;;;;;5072431;28;20213;-70
2021/11/27 05:40:12;;;;;;;3.80;2.70;;;4.30;99.90;;;;;;5064409;28;20206;-70
2021/11/27 05:42:39;;;;;;;4.20;2.60;;;4.30;99.90;;;;;;5065354;28;20207;-70
2021/11/27 05:45:07;;;;;;;3.33;2.70;;;4.20;99.90;;;;;;5054990;28;20569;-70
2021/11/27 05:47:35;;;;;;;3.43;2.90;;;4.20;99.90;;;;;;5069640;28;20202;-70
2021/11/27 05:50:02;;;;;;;3.17;2.80;;;4.20;99.90;;;;;;5069950;28;20195;-70
2021/11/27 05:52:29;;;;;;;4.77;3.20;;;4.20;99.90;;;;;;5061181;28;20198;-70
2021/11/27 05:54:56;;;;;;;4.07;2.93;;;4.20;99.90;;;;;;5070586;28;20196;-70
2021/11/27 05:57:23;;;;;;;4.53;3.43;;;4.20;99.90;;;;;;5068944;28;20204;-70
2021/11/27 05:59:49;;;;;;;7.43;3.70;;;4.20;99.90;;;;;;5071288;28;20201;-70
2021/11/27 06:02:17;;;;;;;5.50;3.60;;;4.20;99.90;;;;;;5070245;28;20292;-70
2021/11/27 06:04:45;;;;;;;6.60;3.90;;;4.20;99.90;;;;;;5063079;28;20229;-70
2021/11/27 06:07:12;;;;;;;4.80;3.40;;;4.10;99.90;;;;;;5070125;28;20494;-70
2021/11/27 06:09:39;;;;;;;4.23;3.40;;;4.10;99.90;;;;;;5054828;28;20206;-70
2021/11/27 06:12:06;;;;;;;5.57;3.77;;;4.10;99.90;;;;;;5070301;28;20640;-70
2021/11/27 06:14:34;;;;;;;5.10;3.60;;;4.10;99.90;;;;;;5056418;28;20218;-70
2021/11/27 06:17:01;;;;;;;5.10;3.80;;;4.00;99.90;;;;;;5063159;28;20199;-70
2021/11/27 06:19:28;;;;;;;7.63;4.30;;;4.10;99.90;;;;;;5051804;28;20202;-70
2021/11/27 06:21:56;;;;;;;6.77;3.33;;;4.10;99.90;;;;;;5051304;28;20563;-70
2021/11/27 06:24:23;;;;;;;6.77;4.40;;;4.10;99.90;;;;;;5062578;28;20529;-70
2021/11/27 06:26:49;;;;;;;7.57;4.57;;;4.10;99.90;;;;;;5070072;28;20218;-70
2021/11/27 06:29:17;;;;;;;7.20;4.33;;;4.20;99.90;;;;;;5052129;28;20577;-70
2021/11/27 06:31:44;;;;;;;6.47;4.23;;;4.20;99.90;;;;;;5052127;28;20558;-70
2021/11/27 06:34:10;;;;;;;7.60;4.20;;;4.20;99.90;;;;;;5057435;28;20299;-70
2021/11/27 06:36:37;;;;;;;5.53;4.07;;;4.20;99.90;;;;;;5051772;28;20203;-70
2021/11/27 06:39:06;;;;;;;7.90;4.37;;;4.20;99.90;;;;;;5066640;28;20559;-70
2021/11/27 06:41:32;;;;;;;6.73;3.80;;;4.20;99.90;;;;;;5073845;28;20214;-70
2021/11/27 06:43:59;;;;;;;6.70;3.77;;;4.20;99.90;;;;;;5068651;28;20203;-70
2021/11/27 06:46:26;;;;;;;5.33;4.00;;;4.30;99.90;;;;;;5055619;28;20227;-70
2021/11/27 06:48:53;;;;;;;7.43;4.40;;;4.30;99.90;;;;;;5065202;28;20201;-70
2021/11/27 06:51:20;;;;;;;5.63;3.90;;;4.20;99.90;;;;;;5067106;28;20206;-70
2021/11/27 06:53:47;;;;;;;6.63;4.03;;;4.30;99.90;;;;;;5071238;28;20567;-70
2021/11/27 06:56:15;;;;;;;6.30;4.10;;;4.20;99.90;;;;;;5074710;28;20221;-70
2021/11/27 06:58:42;;;;;;;6.83;4.30;;;4.30;99.90;;;;;;5069400;28;20649;-70
2021/11/27 07:01:09;;;;;;;5.77;4.10;;;4.30;99.90;;;;;;5072989;28;20201;-70
2021/11/27 07:03:35;;;;;;;5.37;3.87;;;4.30;99.90;;;;;;5074572;28;20202;-70
2021/11/27 07:06:04;;;;;;;5.73;3.90;;;4.30;99.90;;;;;;5058326;28;20234;-70
2021/11/27 07:08:30;;;;;;;6.23;4.07;;;4.30;99.90;;;;;;5058096;28;20198;-70
2021/11/27 07:10:57;;;;;;;7.27;4.80;;;4.30;99.90;;;;;;5068850;28;20708;-70
2021/11/27 07:13:25;;;;;;;7.23;4.30;;;4.30;99.90;;;;;;5056167;28;20287;-70
2021/11/27 07:15:52;;;;;;;7.03;4.60;;;4.30;99.90;;;;;;5058655;28;20198;-70
2021/11/27 07:18:19;;;;;;;5.93;4.03;;;4.30;99.90;;;;;;5055210;28;20561;-70
2021/11/27 07:20:46;;;;;;;8.30;4.63;;;4.30;99.90;;;;;;5058987;28;20199;-70
2021/11/27 07:23:13;;;;;;;7.17;4.87;;;4.40;99.90;;;;;;5054924;28;20209;-70
2021/11/27 07:25:40;;;;;;;8.07;4.57;;;4.30;99.90;;;;;;5070130;28;20397;-70
2021/11/27 07:28:09;;;;;;;8.17;4.73;;;4.40;99.90;;;;;;5072983;28;20196;-70
2021/11/27 07:30:37;;;;;;;7.30;4.30;;;4.30;99.90;;;;;;5070145;28;20213;-70
2021/11/27 07:33:05;;;;;;;7.87;5.03;;;4.40;99.90;;;;;;5074801;28;20207;-70
2021/11/27 07:35:32;;;;;;;6.10;4.47;;;4.40;99.90;;;;;;5069179;28;20195;-70
2021/11/27 07:37:59;;;;;;;8.47;4.83;;;4.30;99.90;;;;;;5056806;28;20205;-70
2021/11/27 07:40:26;;;;;;;5.77;4.27;;;4.30;99.90;;;;;;5056790;28;20199;-70
2021/11/27 07:42:53;;;;;;;7.43;4.43;;;4.20;99.90;;;;;;5064483;28;20618;-70
2021/11/27 07:45:20;;;;;;;7.17;4.80;;;4.30;99.90;;;;;;5071608;28;20224;-70
2021/11/27 07:47:48;;;;;;;7.20;4.73;;;4.30;99.90;;;;;;5059832;28;20199;-70
2021/11/27 07:50:15;;;;;;;11.33;5.00;;;4.30;99.90;;;;;;5054615;28;20205;-70
2021/11/27 07:52:42;;;;;;;8.67;4.80;;;4.40;99.90;;;;;;5067883;28;20716;-70
2021/11/27 07:55:10;;;;;;;8.70;4.97;;;4.40;99.90;;;;;;5071725;28;20217;-70
2021/11/27 07:57:37;;;;;;;7.50;4.77;;;4.40;99.90;;;;;;5071395;28;20199;-70
2021/11/27 08:00:05;;;;;;;6.63;4.47;;;4.40;99.90;;;;;;5064044;28;20264;-70
2021/11/27 08:02:32;;;;;;;8.27;5.10;;;4.40;99.90;;;;;;5065170;28;20695;-70
2021/11/27 08:05:00;;;;;;;8.40;5.33;;;4.50;99.90;;;;;;5071021;28;20206;-70
2021/11/27 08:07:27;;;;;;;8.57;5.13;;;4.50;99.90;;;;;;5073711;28;20670;-70
2021/11/27 08:09:55;;;;;;;9.13;5.10;;;4.50;99.90;;;;;;5058962;28;20202;-70
2021/11/27 08:12:22;;;;;;;8.10;4.97;;;4.50;99.90;;;;;;5063508;28;20645;-70
2021/11/27 08:14:49;;;;;;;7.63;5.07;;;4.50;99.90;;;;;;5071758;28;20200;-70
2021/11/27 08:17:16;;;;;;;8.00;4.90;;;4.50;99.90;;;;;;5072833;28;20213;-70
2021/11/27 08:19:43;;;;;;;9.03;4.80;;;4.50;99.90;;;;;;5059208;28;20425;-70
2021/11/27 08:22:11;;;;;;;9.07;6.00;;;4.50;99.90;;;;;;5065958;28;20202;-70
2021/11/27 08:24:38;;;;;;;8.23;4.87;;;4.50;99.90;;;;;;5075520;28;20202;-70
2021/11/27 08:27:05;;;;;;;7.67;5.03;;;4.60;99.90;;;;;;5073503;28;20229;-70
2021/11/27 08:29:32;;;;;;;9.40;5.20;;;4.60;99.90;;;;;;5070092;28;20206;-70
2021/11/27 08:31:59;;;;;;;9.17;5.27;;;4.60;99.90;;;;;;5075681;28;20213;-70
2021/11/27 08:34:26;;;;;;;9.80;5.30;;;4.60;99.90;;;;;;5072268;28;20289;-70
2021/11/27 08:36:53;;;;;;;9.53;5.67;;;4.60;99.90;;;;;;5079550;28;20285;-70
2021/11/27 08:39:21;;;;;;;10.53;6.10;;;4.70;99.90;;;;;;5073560;28;20199;-70
2021/11/27 08:41:48;;;;;;;8.07;4.77;;;4.70;99.90;;;;;;5074744;28;20205;-70
2021/11/27 08:44:15;;;;;;;8.23;5.10;;;4.70;99.90;;;;;;5074198;28;20293;-70
2021/11/27 08:46:42;;;;;;;9.97;5.27;;;4.70;99.90;;;;;;5082737;28;20232;-70
2021/11/27 08:49:10;;;;;;;9.10;5.50;;;4.70;99.90;;;;;;5075919;28;20198;-70
2021/11/27 08:51:40;;;;;;;7.20;4.63;;;4.80;99.90;;;;;;5071239;28;20199;-70
2021/11/27 08:54:09;;;;;;;8.00;5.13;;;4.80;99.90;;;;;;5078608;28;20293;-69
2021/11/27 08:56:37;;;;;;;7.73;3.97;;;4.80;99.90;;;;;;5082396;28;20197;-69
2021/11/27 08:59:04;;;;;;;7.00;4.60;;;4.80;99.90;;;;;;5073779;28;20289;-69
2021/11/27 09:01:32;;;;;;;5.63;4.20;;;4.90;99.90;;;;;;5073573;28;20218;-69
2021/11/27 09:03:59;;;;;;;5.23;4.03;;;4.90;99.90;;;;;;5076844;28;20217;-69
2021/11/27 09:06:26;;;;;;;5.47;3.80;;;4.90;99.90;;;;;;5075798;28;20263;-69
2021/11/27 09:08:54;;;;;;;4.90;3.63;;;5.00;99.90;;;;;;5071668;28;20420;-69
2021/11/27 09:11:22;;;;;;;5.47;3.97;;;5.00;99.90;;;;;;5077745;28;20550;-70
2021/11/27 09:13:52;;;;;;;6.43;3.83;;;4.90;99.90;;;;;;5074884;28;20645;-69
2021/11/27 09:16:19;;;;;;;5.50;3.90;;;5.00;99.90;;;;;;5072687;28;20198;-70
2021/11/27 09:18:46;;;;;;;5.30;3.70;;;4.90;99.90;;;;;;5079619;28;20208;-70
2021/11/27 09:21:13;;;;;;;5.17;4.03;;;4.90;99.90;;;;;;5081360;28;20292;-69
2021/11/27 09:23:40;;;;;;;6.23;4.00;;;4.90;99.90;;;;;;5079635;28;20198;-69
2021/11/27 09:26:07;;;;;;;5.67;3.90;;;4.80;99.90;;;;;;5075093;28;20217;-69
2021/11/27 09:28:34;;;;;;;5.07;3.83;;;4.90;99.90;;;;;;5083243;28;20214;-70
2021/11/27 09:31:03;;;;;;;4.43;3.60;;;4.80;99.90;;;;;;5070357;28;20227;-70
2021/11/27 09:33:30;;;;;;;4.87;3.87;;;4.80;99.90;;;;;;5071519;28;20203;-69
2021/11/27 09:36:00;;;;;;;4.30;3.43;;;4.80;99.90;;;;;;5074623;28;20197;-70
2021/11/27 09:38:27;;;;;;;4.00;3.43;;;4.80;99.90;;;;;;5075064;28;20198;-69
2021/11/27 09:41:10;;;;;;;3.90;3.10;;;4.80;99.90;;;;;;5075365;28;20213;-69
2021/11/27 09:43:38;;;;;;;3.50;3.00;;;4.90;99.90;;;;;;5071481;28;20268;-69
2021/11/27 09:46:07;;;;;;;4.10;3.17;;;4.90;99.90;;;;;;5067613;28;20821;-70
2021/11/27 09:48:36;;;;;;;4.00;2.97;;;4.90;99.90;;;;;;5060870;28;20198;-70
2021/11/27 09:51:03;;;;;;;4.63;3.30;;;5.00;99.90;;;;;;5076957;28;20255;-70
2021/11/27 09:53:31;;;;;;;3.83;3.30;;;5.10;99.90;;;;;;5072177;28;20262;-70
2021/11/27 09:56:01;;;;;;;3.40;2.90;;;5.10;99.90;;;;;;5067872;28;20206;-70
2021/11/27 09:58:28;;;;;;;3.67;3.23;;;5.20;99.90;;;;;;5066485;28;20300;-70
2021/11/27 10:00:56;;;;;;;3.90;3.50;;;5.20;99.90;;;;;;5073194;28;20198;-70
2021/11/27 10:03:25;;;;;;;3.13;2.77;;;5.30;99.90;;;;;;5063757;28;20213;-70
2021/11/27 10:05:53;;;;;;;3.37;2.70;;;5.30;99.90;;;;;;5063199;28;20209;-70
2021/11/27 10:08:20;;;;;;;4.27;3.20;;;5.30;99.90;;;;;;5074745;28;20205;-70
2021/11/27 10:10:47;;;;;;;4.57;3.33;;;5.30;99.90;;;;;;5067939;28;20208;-69
2021/11/27 10:13:17;;;;;;;2.90;2.60;;;5.20;99.90;;;;;;5071419;28;20586;-70
2021/11/27 10:15:44;;;;;;;2.50;2.30;;;5.30;99.90;;;;;;5073529;28;20205;-70
2021/11/27 10:18:15;;;;;;;3.50;2.30;;;5.30;99.90;;;;;;5069007;28;20251;-70
2021/11/27 10:20:43;;;;;;;2.87;2.30;;;5.30;99.90;;;;;;5073115;28;20210;-70
2021/11/27 10:23:11;;;;;;;2.40;2.20;;;5.30;99.90;;;;;;5077551;28;20198;-70
2021/11/27 10:25:39;;;;;;;2.00;1.80;;;5.30;99.90;;;;;;5071814;28;20220;-70
2021/11/27 10:28:18;;;;;;;2.40;2.10;;;5.30;99.90;;;;;;5072614;28;20233;-70
2021/11/27 10:30:51;;;;;;;2.30;2.00;;;5.30;99.90;;;;;;5074622;28;20212;-70
2021/11/27 10:33:18;;;;;;;2.20;2.00;;;5.30;99.90;;;;;;5074070;28;20671;-70
2021/11/27 10:35:56;;;;;;;2.10;1.90;;;5.30;99.90;;;;;;5072085;28;20206;-70
2021/11/27 10:38:34;;;;;;;2.10;1.90;;;5.40;99.90;;;;;;5074282;28;20233;-70
2021/11/27 10:41:01;;;;;;;2.50;2.30;;;5.40;99.90;;;;;;5074948;28;20206;-70
2021/11/27 10:43:28;;;;;;;2.17;1.97;;;5.40;99.90;;;;;;5068863;28;20210;-70
2021/11/27 10:45:55;;;;;;;2.37;2.03;;;5.40;99.90;;;;;;5077631;28;20206;-70
2021/11/27 10:48:24;;;;;;;2.73;2.43;;;5.50;99.90;;;;;;5070604;28;20209;-70
2021/11/27 10:50:55;;;;;;;2.00;1.90;;;5.50;99.90;;;;;;5074117;28;20632;-70
2021/11/27 10:53:25;;;;;;;2.20;1.93;;;5.50;99.90;;;;;;5073353;28;20516;-70
2021/11/27 10:55:52;;;;;;;2.00;1.90;;;5.50;99.90;;;;;;5079205;28;20239;-70
2021/11/27 10:58:19;;;;;;;1.90;1.80;;;5.50;99.90;;;;;;5074301;28;20210;-69
2021/11/27 11:00:48;;;;;;;2.10;1.90;;;5.50;99.90;;;;;;5072108;28;20194;-70
2021/11/27 11:03:26;;;;;;;2.27;2.07;;;5.60;99.90;;;;;;5073147;28;20600;-70
2021/11/27 11:05:58;;;;;;;1.90;1.80;;;5.60;99.90;;;;;;5067225;28;20210;-70
2021/11/27 11:08:32;;;;;;;2.40;2.20;;;5.60;99.90;;;;;;5073400;28;20653;-70
2021/11/27 11:11:00;;;;;;;2.97;2.27;;;5.50;99.90;;;;;;5075155;28;20288;-70
2021/11/27 11:13:31;;;;;;;2.20;2.00;;;5.50;99.90;;;;;;5078111;28;20207;-70
2021/11/27 11:16:06;;;;;;;2.30;1.90;;;5.50;99.90;;;;;;5074763;28;20256;-70
2021/11/27 11:18:34;;;;;;;2.37;2.20;;;5.60;99.90;;;;;;5073681;28;20396;-70
2021/11/27 11:21:05;;;;;;;2.60;2.30;;;5.60;99.90;;;;;;5074761;28;20206;-70
2021/11/27 11:23:34;;;;;;;2.57;2.03;;;5.50;99.90;;;;;;5071338;28;20682;-70
2021/11/27 11:26:06;;;;;;;2.77;2.10;;;5.50;99.90;;;;;;5075904;28;20233;-70
2021/11/27 11:28:36;;;;;;;2.33;2.10;;;5.50;99.90;;;;;;5078963;28;20532;-70
2021/11/27 11:31:07;;;;;;;2.40;2.20;;;5.50;99.90;;;;;;5069035;28;20213;-70
2021/11/27 11:33:38;;;;;;;2.47;2.27;;;5.50;99.90;;;;;;5069326;28;20210;-70
2021/11/27 11:36:08;;;;;;;2.67;2.47;;;5.50;99.90;;;;;;5066272;28;20692;-69
2021/11/27 11:38:35;;;;;;;2.50;2.30;;;5.40;99.90;;;;;;5074702;28;20195;-70
2021/11/27 11:41:02;;;;;;;3.27;2.97;;;5.40;99.90;;;;;;5076712;28;20206;-70
2021/11/27 11:43:30;;;;;;;3.40;2.70;;;5.40;99.90;;;;;;5076189;28;20203;-69
2021/11/27 11:45:56;;;;;;;2.63;2.43;;;5.40;99.90;;;;;;5074919;28;20702;-70
2021/11/27 11:48:26;;;;;;;5.87;3.63;;;5.40;99.90;;;;;;5070821;28;20211;-70
2021/11/27 11:51:04;;;;;;;3.30;2.93;;;5.40;99.90;;;;;;5072117;28;20205;-70
2021/11/27 11:53:40;;;;;;;4.23;3.07;;;5.40;99.90;;;;;;5075951;28;20565;-70
2021/11/27 11:56:08;;;;;;;3.93;3.07;;;5.30;99.90;;;;;;5072607;28;20210;-70
2021/11/27 11:58:38;;;;;;;3.23;2.70;;;5.30;99.90;;;;;;5078961;28;20194;-70
2021/11/27 12:01:07;;;;;;;5.60;3.03;;;5.30;99.90;;;;;;5073734;28;20209;-70
2021/11/27 12:03:41;;;;;;;5.60;4.10;;;5.30;99.90;;;;;;5072259;28;20206;-70
2021/11/27 12:06:11;;;;;;;5.30;4.17;;;5.30;99.90;;;;;;5068346;28;20480;-69
2021/11/27 12:09:10;;;;;;;5.57;4.20;;;5.30;99.90;;;;;;5077738;28;20702;-70
2021/11/27 12:11:56;;;;;;;4.70;3.83;;;5.20;99.90;;;;;;5069028;28;20301;-70
2021/11/27 12:14:58;;;;;;;4.23;3.80;;;5.30;99.90;;;;;;5071425;28;20645;-70
2021/11/27 12:17:24;;;;;;;5.00;3.80;;;5.30;99.90;;;;;;5070230;28;20382;-70
2021/11/27 12:19:53;;;;;;;4.30;3.40;;;5.30;99.90;;;;;;5072428;28;20206;-70
2021/11/27 12:22:36;;;;;;;3.40;3.10;;;5.30;99.90;;;;;;5069695;28;20572;-69
2021/11/27 12:25:25;;;;;;;4.27;3.23;;;5.20;99.90;;;;;;5069891;28;20214;-70
2021/11/27 12:28:23;;;;;;;4.17;3.47;;;5.20;99.90;;;;;;5065182;28;20679;-70
2021/11/27 12:31:07;;;;;;;4.67;3.30;;;5.20;99.90;;;;;;5065283;28;20202;-70
2021/11/27 12:33:58;;;;;;;4.97;3.90;;;5.30;99.90;;;;;;5074691;28;20621;-70
2021/11/27 12:36:56;;;;;;;5.23;4.17;;;5.20;99.90;;;;;;5072968;28;20206;-70
2021/11/27 12:39:36;;;;;;;7.57;4.53;;;5.30;99.90;;;;;;5070551;28;20218;-70
2021/11/27 12:42:36;;;;;;;6.93;4.80;;;5.30;99.90;;;;;;5067058;28;20229;-70
2021/11/27 12:45:05;;;;;;;6.00;4.40;;;5.30;99.90;;;;;;5071278;28;20210;-70
2021/11/27 12:47:41;;;;;;;7.10;4.73;;;5.40;99.90;;;;;;5074398;28;20237;-70
2021/11/27 12:50:19;;;;;;;4.80;3.60;;;5.40;99.90;;;;;;5067595;28;20202;-70
2021/11/27 12:52:47;;;;;;;6.30;3.80;;;5.40;99.90;;;;;;5065595;28;20201;-70
2021/11/27 12:55:37;;;;;;;6.83;4.43;;;5.50;99.90;;;;;;5073126;28;20708;-70
2021/11/27 12:58:41;;;;;;;7.17;4.70;;;5.50;99.90;;;;;;5071819;28;20659;-70
2021/11/27 13:01:09;;;;;;;10.33;5.50;;;5.50;99.90;;;;;;5073117;28;20245;-70
2021/11/27 13:03:36;;;;;;;11.97;6.33;;;5.60;99.90;;;;;;5065060;28;20194;-70
2021/11/27 13:06:04;;;;;;;11.57;6.57;;;5.60;99.90;;;;;;5073769;28;20210;-69